createdAt,value
2019-03-04T00:00:44.895Z,24.90
2019-03-04T00:03:15.847Z,24.47
2019-03-04T00:05:46.009Z,27.10
2019-03-04T00:08:15.339Z,22.07
2019-03-04T00:10:44.661Z,25.37
2019-03-04T00:13:13.988Z,22.93
2019-03-04T00:15:43.308Z,23.27
2019-03-04T00:18:12.639Z,31.87
2019-03-04T00:20:41.971Z,25.97
2019-03-04T00:23:11.374Z,23.97
2019-03-04T00:25:41.659Z,22.53
2019-03-04T00:28:10.983Z,26.73
2019-03-04T00:30:40.383Z,22.80
2019-03-04T00:33:09.717Z,25.13
2019-03-04T00:35:39.039Z,22.67
2019-03-04T00:38:08.382Z,26.27
2019-03-04T00:40:37.729Z,19.80
2019-03-04T00:43:07.130Z,20.97
2019-03-04T00:45:36.455Z,23.20
2019-03-04T00:48:05.849Z,21.07
2019-03-04T00:50:35.180Z,20.27
2019-03-04T00:53:04.508Z,21.27
2019-03-04T00:55:33.850Z,22.37
2019-03-04T00:58:03.167Z,17.13
2019-03-04T01:00:32.520Z,22.17
2019-03-04T01:03:01.831Z,21.10
2019-03-04T01:05:31.182Z,17.53
2019-03-04T01:08:00.544Z,19.63
2019-03-04T01:10:30.020Z,20.47
2019-03-04T01:12:59.367Z,20.07
2019-03-04T01:15:29.068Z,18.70
2019-03-04T01:17:58.392Z,19.70
2019-03-04T01:20:28.697Z,20.93
2019-03-04T01:22:58.024Z,20.60
2019-03-04T01:25:27.351Z,20.20
2019-03-04T01:27:56.688Z,20.90
2019-03-04T01:30:26.023Z,19.97
2019-03-04T01:32:56.620Z,17.37
2019-03-04T01:35:25.959Z,17.20
2019-03-04T01:37:55.287Z,21.90
2019-03-04T01:40:24.787Z,15.97
2019-03-04T01:42:54.129Z,18.43
2019-03-04T01:45:23.458Z,16.27
2019-03-04T01:47:52.808Z,16.83
2019-03-04T01:50:22.563Z,17.87
2019-03-04T01:52:51.899Z,21.03
2019-03-04T01:55:21.253Z,21.20
2019-03-04T01:57:50.640Z,13.37
2019-03-04T02:00:21.600Z,15.10
2019-03-04T02:02:50.991Z,15.77
2019-03-04T02:05:20.615Z,16.33
2019-03-04T02:07:50.035Z,17.57
2019-03-04T02:10:20.054Z,18.03
2019-03-04T02:12:49.555Z,14.00
2019-03-04T02:15:20.215Z,13.87
2019-03-04T02:17:49.606Z,17.43
2019-03-04T02:20:19.401Z,20.07
2019-03-04T02:22:48.731Z,13.77
2019-03-04T02:25:43.547Z,16.00
2019-03-04T02:28:12.955Z,15.10
2019-03-04T02:30:42.302Z,17.67
2019-03-04T02:33:11.696Z,13.57
2019-03-04T02:35:41.012Z,11.40
2019-03-04T02:38:10.358Z,14.07
2019-03-04T02:40:39.682Z,14.10
2019-03-04T02:43:09.013Z,18.43
2019-03-04T02:45:44.040Z,16.70
2019-03-04T02:48:13.469Z,12.40
2019-03-04T02:50:42.799Z,10.17
2019-03-04T02:53:12.136Z,10.47
2019-03-04T02:55:41.458Z,12.13
2019-03-04T02:58:10.792Z,9.80
2019-03-04T03:00:40.182Z,12.23
2019-03-04T03:03:09.574Z,11.83
2019-03-04T03:05:38.930Z,11.03
2019-03-04T03:08:09.400Z,10.97
2019-03-04T03:10:38.720Z,9.83
2019-03-04T03:13:08.072Z,10.80
2019-03-04T03:15:38.360Z,13.77
2019-03-04T03:18:07.699Z,10.63
2019-03-04T03:20:37.024Z,11.37
2019-03-04T03:23:06.359Z,11.43
2019-03-04T03:25:35.700Z,9.40
2019-03-04T03:28:05.052Z,11.37
2019-03-04T03:30:34.508Z,8.70
2019-03-04T03:33:03.836Z,10.50
2019-03-04T03:35:33.165Z,9.53
2019-03-04T03:38:02.497Z,12.57
2019-03-04T03:40:31.942Z,9.40
2019-03-04T03:43:01.384Z,8.07
2019-03-04T03:45:30.704Z,11.40
2019-03-04T03:48:00.036Z,9.27
2019-03-04T03:50:29.441Z,8.27
2019-03-04T03:52:58.767Z,6.33
2019-03-04T03:55:28.097Z,9.63
2019-03-04T03:57:57.423Z,11.07
2019-03-04T04:00:26.917Z,8.70
2019-03-04T04:02:56.249Z,11.37
2019-03-04T04:05:25.596Z,9.83
2019-03-04T04:07:54.920Z,8.43
2019-03-04T04:10:24.249Z,8.57
2019-03-04T04:12:53.570Z,7.97
2019-03-04T04:15:22.961Z,9.13
2019-03-04T04:17:52.357Z,9.40
2019-03-04T04:20:21.691Z,6.97
2019-03-04T04:22:51.019Z,6.67
2019-03-04T04:25:20.340Z,6.83
2019-03-04T04:27:49.669Z,11.57
2019-03-04T04:30:23.328Z,6.13
2019-03-04T04:32:52.662Z,8.43
2019-03-04T04:35:22.425Z,12.63
2019-03-04T04:37:51.744Z,9.87
2019-03-04T04:40:22.047Z,6.90
2019-03-04T04:42:51.368Z,9.47
2019-03-04T04:45:20.695Z,10.00
2019-03-04T04:47:50.021Z,11.80
2019-03-04T04:50:27.282Z,8.57
2019-03-04T04:52:56.647Z,9.23
2019-03-04T04:55:25.976Z,7.77
2019-03-04T04:57:55.310Z,10.63
2019-03-04T05:00:24.652Z,7.00
2019-03-04T05:02:54.031Z,7.90
2019-03-04T05:05:23.380Z,6.47
2019-03-04T05:07:52.755Z,10.70
2019-03-04T05:10:23.820Z,7.70
2019-03-04T05:12:53.180Z,6.57
2019-03-04T05:15:22.507Z,7.33
2019-03-04T05:17:51.835Z,9.07
2019-03-04T05:20:26.166Z,8.00
2019-03-04T05:22:55.515Z,5.27
2019-03-04T05:25:24.892Z,5.93
2019-03-04T05:27:54.225Z,4.93
2019-03-04T05:30:24.508Z,9.47
2019-03-04T05:32:53.830Z,4.70
2019-03-04T05:35:23.152Z,7.57
2019-03-04T05:37:52.563Z,8.63
2019-03-04T05:40:22.265Z,5.53
2019-03-04T05:42:51.657Z,6.30
2019-03-04T05:45:20.972Z,6.70
2019-03-04T05:47:50.299Z,7.97
2019-03-04T05:50:24.366Z,7.10
2019-03-04T05:52:53.695Z,9.10
2019-03-04T05:55:23.025Z,5.83
2019-03-04T05:57:52.344Z,4.30
2019-03-04T06:00:24.368Z,8.77
2019-03-04T06:02:56.772Z,5.47
2019-03-04T06:05:26.097Z,5.23
2019-03-04T06:07:57.659Z,4.57
2019-03-04T06:10:26.968Z,4.60
2019-03-04T06:12:56.291Z,6.27
2019-03-04T06:15:25.620Z,5.30
2019-03-04T06:17:54.956Z,6.63
2019-03-04T06:20:24.267Z,3.50
2019-03-04T06:22:53.599Z,5.43
2019-03-04T06:25:30.325Z,5.73
2019-03-04T06:27:59.692Z,3.30
2019-03-04T06:30:30.416Z,5.40
2019-03-04T06:32:59.801Z,6.17
2019-03-04T06:35:29.120Z,6.80
2019-03-04T06:37:58.447Z,6.03
2019-03-04T06:40:27.769Z,5.33
2019-03-04T06:42:57.125Z,6.70
2019-03-04T06:45:26.498Z,3.07
2019-03-04T06:47:56.815Z,6.57
2019-03-04T06:50:49.972Z,4.63
2019-03-04T06:53:30.995Z,4.93
2019-03-04T06:56:06.052Z,3.73
2019-03-04T06:58:41.573Z,5.50
2019-03-04T07:01:13.629Z,3.87
2019-03-04T07:03:43.140Z,7.33
2019-03-04T07:06:13.545Z,5.43
2019-03-04T07:08:46.035Z,3.10
2019-03-04T07:11:15.351Z,2.93
2019-03-04T07:13:44.678Z,6.40
2019-03-04T07:16:14.004Z,5.20
2019-03-04T07:18:43.332Z,4.30
2019-03-04T07:21:12.668Z,5.80
2019-03-04T07:23:42.079Z,4.37
2019-03-04T07:26:11.438Z,4.43
2019-03-04T07:28:40.749Z,3.70
2019-03-04T07:31:10.093Z,4.67
2019-03-04T07:33:39.416Z,4.03
2019-03-04T07:36:08.755Z,5.90
2019-03-04T07:38:49.662Z,3.70
2019-03-04T07:41:18.995Z,2.20
2019-03-04T07:43:48.315Z,3.57
2019-03-04T07:46:17.707Z,2.97
2019-03-04T07:48:47.019Z,7.33
2019-03-04T07:51:17.685Z,4.90
2019-03-04T07:53:47.048Z,4.70
2019-03-04T07:56:16.410Z,5.03
2019-03-04T07:58:45.724Z,3.10
2019-03-04T08:01:15.057Z,3.80
2019-03-04T08:03:44.400Z,4.10
2019-03-04T08:06:13.904Z,3.87
2019-03-04T08:09:01.034Z,3.00
2019-03-04T08:11:43.387Z,3.40
2019-03-04T08:14:13.749Z,3.33
2019-03-04T08:16:43.081Z,3.60
2019-03-04T08:19:12.393Z,3.00
2019-03-04T08:21:41.720Z,4.73
2019-03-04T08:24:11.036Z,2.67
2019-03-04T08:26:40.383Z,2.10
2019-03-04T08:29:10.240Z,4.47
2019-03-04T08:31:40.026Z,1.60
2019-03-04T08:34:09.451Z,3.70
2019-03-04T08:36:39.915Z,2.60
2019-03-04T08:39:09.475Z,0.93
2019-03-04T08:41:38.963Z,4.93
2019-03-04T08:44:08.291Z,1.70
2019-03-04T08:46:37.609Z,2.73
2019-03-04T08:49:06.925Z,3.73
2019-03-04T08:51:36.259Z,3.70
2019-03-04T08:54:05.624Z,0.80
2019-03-04T08:56:34.939Z,2.17
2019-03-04T08:59:04.279Z,1.60
2019-03-04T09:01:33.617Z,2.37
2019-03-04T09:04:03.021Z,1.23
2019-03-04T09:06:32.388Z,2.60
2019-03-04T09:09:01.748Z,1.77
2019-03-04T09:11:32.699Z,1.73
2019-03-04T09:14:02.001Z,1.50
2019-03-04T09:16:31.331Z,4.30
2019-03-04T09:19:01.717Z,1.00
2019-03-04T09:21:31.039Z,2.00
2019-03-04T09:24:00.388Z,2.33
2019-03-04T09:26:29.707Z,1.97
2019-03-04T09:28:59.028Z,2.67
2019-03-04T09:31:28.344Z,3.87
2019-03-04T09:33:57.651Z,1.57
2019-03-04T09:36:26.998Z,1.37
2019-03-04T09:38:56.324Z,2.40
2019-03-04T09:41:25.728Z,1.43
2019-03-04T09:43:55.037Z,3.07
2019-03-04T09:46:24.376Z,2.43
2019-03-04T09:48:53.792Z,2.17
2019-03-04T09:51:24.580Z,2.57
2019-03-04T09:53:54.221Z,3.80
2019-03-04T09:56:23.567Z,4.37
2019-03-04T09:58:52.891Z,5.07
2019-03-04T10:01:25.314Z,3.67
2019-03-04T10:04:03.476Z,4.83
2019-03-04T10:06:53.992Z,5.27
2019-03-04T10:09:26.489Z,4.40
2019-03-04T10:12:15.607Z,3.90
2019-03-04T10:15:08.770Z,5.73
2019-03-04T10:17:41.854Z,3.57
2019-03-04T10:20:23.222Z,3.33
2019-03-04T10:23:01.208Z,4.43
2019-03-04T10:25:39.633Z,4.80
2019-03-04T10:28:14.946Z,4.33
2019-03-04T10:30:50.251Z,2.70
2019-03-04T10:33:28.416Z,4.43
2019-03-04T10:36:15.413Z,7.93
2019-03-04T10:39:04.655Z,5.80
2019-03-04T10:41:58.096Z,3.67
2019-03-04T10:44:57.848Z,3.43
2019-03-04T10:47:27.184Z,5.83
2019-03-04T10:49:56.551Z,6.53
2019-03-04T10:52:25.876Z,2.63
2019-03-04T10:54:55.256Z,7.10
2019-03-04T10:57:24.675Z,8.83
2019-03-04T10:59:54.004Z,3.77
2019-03-04T11:02:23.355Z,2.40
2019-03-04T11:04:52.692Z,4.63
2019-03-04T11:07:22.012Z,2.53
2019-03-04T11:09:51.340Z,3.97
2019-03-04T11:12:20.655Z,3.93
2019-03-04T11:14:49.987Z,5.40
2019-03-04T11:17:19.304Z,4.30
2019-03-04T11:19:48.680Z,3.17
2019-03-04T11:22:18.262Z,3.30
2019-03-04T11:24:48.046Z,3.63
2019-03-04T11:27:18.355Z,2.97
2019-03-04T11:29:47.748Z,3.60
2019-03-04T11:32:17.068Z,4.13
2019-03-04T11:34:46.397Z,4.83
2019-03-04T11:37:15.702Z,5.00
2019-03-04T11:39:46.658Z,1.57
2019-03-04T11:42:15.975Z,2.50
2019-03-04T11:44:45.304Z,1.83
2019-03-04T11:47:14.625Z,3.00
2019-03-04T11:49:43.937Z,2.70
2019-03-04T11:52:13.527Z,0.93
2019-03-04T11:54:42.919Z,0.77
2019-03-04T11:57:13.405Z,0.50
2019-03-04T11:59:42.728Z,4.60
2019-03-04T12:02:13.680Z,5.93
2019-03-04T12:04:42.998Z,21.80
2019-03-04T12:07:12.403Z,2.90
2019-03-04T12:09:41.794Z,4.47
2019-03-04T12:12:11.104Z,0.80
2019-03-04T12:14:40.422Z,4.27
2019-03-04T12:17:09.736Z,2.67
2019-03-04T12:19:39.084Z,1.40
2019-03-04T12:22:08.396Z,2.60
2019-03-04T12:24:37.745Z,2.03
2019-03-04T12:27:07.057Z,2.00
2019-03-04T12:29:37.540Z,1.60
2019-03-04T12:32:08.433Z,2.67
2019-03-04T12:34:37.760Z,2.57
2019-03-04T12:37:07.080Z,0.60
2019-03-04T12:39:36.407Z,2.37
2019-03-04T12:42:05.732Z,2.43
2019-03-04T12:44:35.052Z,2.77
2019-03-04T12:47:04.376Z,0.87
2019-03-04T12:49:33.792Z,1.50
2019-03-04T12:52:03.116Z,1.23
2019-03-04T12:54:32.437Z,2.67
2019-03-04T12:57:01.767Z,1.80
2019-03-04T12:59:31.084Z,3.60
2019-03-04T13:02:00.407Z,1.37
2019-03-04T13:04:29.723Z,1.73
2019-03-04T13:06:59.055Z,2.03
2019-03-04T13:09:28.398Z,52.87
2019-03-04T13:11:57.783Z,4.23
2019-03-04T13:14:27.117Z,3.87
2019-03-04T13:16:56.519Z,4.50
2019-03-04T13:19:25.837Z,5.07
2019-03-04T13:21:55.159Z,12.93
2019-03-04T13:24:24.717Z,6.77
2019-03-04T13:26:54.104Z,3.13
2019-03-04T13:29:23.426Z,6.97
2019-03-04T13:31:52.743Z,1.80
2019-03-04T13:34:22.161Z,4.73
2019-03-04T13:36:51.564Z,4.73
2019-03-04T13:39:20.891Z,2.93
2019-03-04T13:41:50.216Z,3.07
2019-03-04T13:44:19.528Z,3.33
2019-03-04T13:46:48.941Z,4.03
2019-03-04T13:49:18.349Z,2.70
2019-03-04T13:51:47.908Z,3.70
2019-03-04T13:54:17.220Z,5.37
2019-03-04T13:56:46.614Z,5.70
2019-03-04T13:59:15.915Z,5.27
2019-03-04T14:01:45.243Z,3.73
2019-03-04T14:04:15.298Z,4.37
2019-03-04T14:06:44.667Z,4.87
2019-03-04T14:09:16.196Z,2.47
2019-03-04T14:11:45.522Z,8.80
2019-03-04T14:14:14.839Z,30.73
2019-03-04T14:16:44.160Z,10.70
2019-03-04T14:19:13.487Z,8.83
2019-03-04T14:21:42.790Z,6.33
2019-03-04T14:24:12.121Z,6.07
2019-03-04T14:26:41.438Z,7.67
2019-03-04T14:29:10.771Z,6.93
2019-03-04T14:31:40.312Z,4.10
2019-03-04T14:34:09.652Z,5.30
2019-03-04T14:36:38.979Z,8.63
2019-03-04T14:39:20.601Z,7.13
2019-03-04T14:41:49.929Z,5.73
2019-03-04T14:44:19.307Z,2.90
2019-03-04T14:46:49.595Z,6.57
2019-03-04T14:49:18.924Z,3.13
2019-03-04T14:51:48.234Z,6.70
2019-03-04T14:54:17.604Z,5.57
2019-03-04T14:56:47.518Z,4.83
2019-03-04T14:59:16.946Z,4.03
2019-03-04T15:01:46.265Z,6.17
2019-03-04T15:04:15.585Z,7.13
2019-03-04T15:06:44.900Z,5.00
2019-03-04T15:09:14.807Z,12.63
2019-03-04T15:11:44.128Z,10.83
2019-03-04T15:14:17.790Z,8.47
2019-03-04T15:16:47.387Z,10.73
2019-03-04T15:19:16.725Z,12.67
2019-03-04T15:21:46.040Z,9.23
2019-03-04T15:24:15.385Z,4.37
2019-03-04T15:26:44.690Z,7.73
2019-03-04T15:29:14.042Z,8.50
2019-03-04T15:31:43.359Z,5.33
2019-03-04T15:34:12.747Z,6.23
2019-03-04T15:36:42.063Z,16.13
2019-03-04T15:42:10.040Z,4.20
2019-03-04T15:44:39.359Z,5.53
2019-03-04T15:47:08.676Z,5.87
2019-03-04T15:49:38.014Z,9.23
2019-03-04T15:52:07.421Z,8.73
2019-03-04T15:54:36.764Z,11.40
2019-03-04T15:57:06.667Z,6.40
2019-03-04T15:59:36.001Z,8.57
2019-03-04T16:02:06.548Z,6.07
2019-03-04T16:04:36.840Z,7.67
2019-03-04T16:07:06.640Z,6.27
2019-03-04T16:09:36.050Z,4.77
2019-03-04T16:12:06.439Z,7.37
2019-03-04T16:14:36.096Z,8.23
2019-03-04T16:17:07.071Z,7.90
2019-03-04T16:19:36.491Z,10.00
2019-03-04T16:22:05.820Z,7.80
2019-03-04T16:24:35.139Z,7.13
2019-03-04T16:27:07.591Z,11.70
2019-03-04T16:29:37.418Z,10.47
2019-03-04T16:32:06.984Z,10.03
2019-03-04T16:34:36.308Z,8.60
2019-03-04T16:37:06.255Z,10.80
2019-03-04T16:39:36.399Z,14.20
2019-03-04T16:42:06.369Z,13.57
2019-03-04T16:44:35.683Z,19.70
2019-03-04T16:47:05.348Z,20.20
2019-03-04T16:49:34.673Z,15.10
2019-03-04T16:52:04.468Z,24.30
2019-03-04T16:54:33.888Z,20.60
2019-03-04T16:57:06.382Z,18.03
2019-03-04T16:59:35.707Z,21.77
2019-03-04T17:02:05.040Z,19.27
2019-03-04T17:04:34.361Z,17.83
2019-03-04T17:07:04.442Z,14.97
2019-03-04T17:09:33.835Z,12.70
2019-03-04T17:12:04.721Z,16.00
2019-03-04T17:14:34.036Z,12.10
2019-03-04T17:17:11.509Z,11.47
2019-03-04T17:19:40.812Z,16.13
2019-03-04T17:22:10.188Z,14.43
2019-03-04T17:24:39.883Z,18.87
2019-03-04T17:27:09.457Z,14.40
2019-03-04T17:29:38.798Z,19.00
2019-03-04T17:32:08.263Z,18.93
2019-03-04T17:34:37.597Z,20.03
2019-03-04T17:37:07.001Z,14.23
2019-03-04T17:39:37.500Z,24.17
2019-03-04T17:42:06.818Z,17.00
2019-03-04T17:44:36.146Z,11.77
2019-03-04T17:47:06.861Z,20.87
2019-03-04T17:49:36.158Z,20.43
2019-03-04T17:52:05.568Z,13.73
2019-03-04T17:54:35.496Z,18.60
2019-03-04T17:57:05.146Z,17.07
2019-03-04T17:59:34.464Z,17.00
2019-03-04T18:02:03.964Z,10.40
2019-03-04T18:04:33.280Z,14.10
2019-03-04T18:07:03.681Z,15.17
2019-03-04T18:09:32.996Z,13.60
2019-03-04T18:12:02.347Z,12.70
2019-03-04T18:14:31.715Z,16.33
2019-03-04T18:17:01.118Z,12.90
2019-03-04T18:19:31.586Z,18.00
2019-03-04T18:22:00.920Z,15.40
2019-03-04T18:24:30.240Z,10.90
2019-03-04T18:26:59.567Z,18.97
2019-03-04T18:29:34.708Z,21.33
2019-03-04T18:32:09.824Z,19.27
2019-03-04T18:35:17.215Z,24.60
2019-03-04T18:38:10.966Z,24.83
2019-03-04T18:40:49.319Z,24.30
2019-03-04T18:43:38.464Z,15.73
2019-03-04T18:46:38.301Z,24.70
2019-03-04T18:49:07.655Z,16.57
2019-03-04T18:51:37.515Z,11.80
2019-03-04T18:54:08.168Z,16.50
2019-03-04T18:56:37.513Z,11.17
2019-03-04T18:59:07.111Z,17.83
2019-03-04T19:01:36.432Z,16.90
2019-03-04T19:04:06.095Z,13.47
2019-03-04T19:06:35.420Z,12.47
2019-03-04T19:09:07.088Z,19.50
2019-03-04T19:11:37.948Z,13.67
2019-03-04T19:14:07.412Z,13.97
2019-03-04T19:16:36.726Z,13.83
2019-03-04T19:19:06.188Z,16.90
2019-03-04T19:21:35.559Z,14.90
2019-03-04T19:24:05.061Z,10.90
2019-03-04T19:26:34.372Z,15.67
2019-03-04T19:29:03.704Z,12.30
2019-03-04T19:31:33.023Z,11.17
2019-03-04T19:34:02.340Z,9.53
2019-03-04T19:36:31.690Z,10.33
2019-03-04T19:39:01.008Z,11.20
2019-03-04T19:41:31.943Z,6.63
2019-03-04T19:44:01.295Z,19.97
2019-03-04T19:46:30.676Z,18.30
2019-03-04T19:49:00.012Z,22.40
2019-03-04T19:51:29.391Z,12.97
2019-03-04T19:53:58.717Z,21.13
2019-03-04T19:56:28.038Z,15.90
2019-03-04T19:58:57.359Z,9.73
2019-03-04T20:01:26.669Z,15.93
2019-03-04T20:03:56.004Z,15.57
2019-03-04T20:06:25.350Z,17.63
2019-03-04T20:08:54.834Z,12.00
2019-03-04T20:11:24.151Z,11.93
2019-03-04T20:13:53.500Z,8.47
2019-03-04T20:16:23.275Z,13.23
2019-03-04T20:18:52.602Z,15.50
2019-03-04T20:21:21.944Z,11.70
2019-03-04T20:23:51.264Z,10.97
2019-03-04T20:26:20.587Z,12.17
2019-03-04T20:28:49.912Z,11.83
2019-03-04T20:31:19.235Z,15.50
2019-03-04T20:33:48.639Z,14.63
2019-03-04T20:36:17.959Z,8.83
2019-03-04T20:38:48.165Z,17.57
2019-03-04T20:41:17.559Z,16.17
2019-03-04T20:43:46.871Z,13.07
2019-03-04T20:46:16.276Z,16.07
2019-03-04T20:48:46.161Z,15.43
2019-03-04T20:51:15.492Z,12.60
2019-03-04T20:53:44.800Z,12.70
2019-03-04T20:56:14.128Z,12.27
2019-03-04T20:58:43.448Z,17.57
2019-03-04T21:01:13.255Z,16.37
2019-03-04T21:03:42.641Z,15.03
2019-03-04T21:06:12.131Z,18.33
2019-03-04T21:08:41.824Z,10.93
2019-03-04T21:11:11.545Z,6.70
2019-03-04T21:13:41.036Z,11.43
2019-03-04T21:16:10.434Z,10.97
2019-03-04T21:18:39.918Z,17.60
2019-03-04T21:21:09.712Z,22.80
2019-03-04T21:23:40.408Z,11.73
2019-03-04T21:26:13.024Z,14.83
2019-03-04T21:28:53.955Z,10.93
2019-03-04T21:31:50.711Z,12.43
2019-03-04T21:34:28.284Z,12.67
2019-03-04T21:37:09.464Z,12.00
2019-03-04T21:39:48.447Z,17.07
2019-03-04T21:42:24.834Z,8.70
2019-03-04T21:45:06.188Z,10.50
2019-03-04T21:47:39.037Z,12.67
2019-03-04T21:50:20.960Z,9.47
2019-03-04T21:52:59.746Z,10.50
2019-03-04T21:55:36.678Z,10.90
2019-03-04T21:58:06.797Z,11.83
2019-03-04T22:00:38.124Z,11.63
2019-03-04T22:03:13.936Z,10.77
2019-03-04T22:05:50.127Z,8.03
2019-03-04T22:08:15.524Z,9.40
2019-03-04T22:10:45.003Z,15.37
2019-03-04T22:13:14.684Z,16.73
2019-03-04T22:15:44.063Z,15.20
2019-03-04T22:18:13.414Z,19.13
2019-03-04T22:20:42.805Z,14.33
2019-03-04T22:23:12.132Z,16.30
2019-03-04T22:25:41.466Z,11.67
2019-03-04T22:28:11.006Z,14.47
2019-03-04T22:30:40.824Z,16.40
2019-03-04T22:33:10.205Z,14.17
2019-03-04T22:35:39.520Z,20.13
2019-03-04T22:38:08.838Z,12.30
2019-03-04T22:40:38.156Z,15.23
2019-03-04T22:43:07.520Z,19.63
2019-03-04T22:45:36.913Z,12.80
2019-03-04T22:48:06.323Z,18.50
2019-03-04T22:50:35.718Z,12.90
2019-03-04T22:53:05.036Z,13.73
2019-03-04T22:55:39.367Z,15.00
2019-03-04T22:58:08.683Z,17.40
2019-03-04T23:00:54.732Z,17.50
2019-03-04T23:03:26.631Z,14.40
2019-03-04T23:06:00.340Z,13.70
2019-03-04T23:08:29.660Z,16.30
2019-03-04T23:10:59.151Z,16.80
2019-03-04T23:13:31.548Z,18.00
2019-03-04T23:16:02.052Z,22.20
2019-03-04T23:18:31.404Z,16.67
2019-03-04T23:21:00.839Z,13.87
2019-03-04T23:23:30.179Z,19.43
2019-03-04T23:25:59.508Z,16.53
2019-03-04T23:28:28.829Z,13.70
2019-03-04T23:31:00.036Z,15.43
2019-03-04T23:33:30.160Z,15.00
2019-03-04T23:35:59.488Z,21.20
2019-03-04T23:38:28.800Z,18.93
2019-03-04T23:40:58.151Z,21.20
2019-03-04T23:43:27.463Z,15.13
2019-03-04T23:45:56.782Z,17.87
2019-03-04T23:48:26.108Z,19.30
2019-03-04T23:50:55.435Z,17.27
2019-03-04T23:53:24.792Z,18.57
2019-03-04T23:55:54.120Z,15.10
2019-03-04T23:58:23.441Z,20.37
